sensor_id;sensor_type;location;lat;lon;timestamp;P1;durP1;ratioP1;P2;durP2;ratioP2
4583;SDS011;2304;47.606;12.186;2023-02-01T00:03:10;14.47;;;7.97;;
4583;SDS011;2304;47.606;12.186;2023-02-01T00:08:12;14.10;;;7.97;;
4583;SDS011;2304;47.606;12.186;2023-02-01T00:13:15;13.80;;;8.23;;
4583;SDS011;2304;47.606;12.186;2023-02-01T00:18:17;17.13;;;9.03;;
4583;SDS011;2304;47.606;12.186;2023-02-01T00:23:19;12.83;;;7.03;;
4583;SDS011;2304;47.606;12.186;2023-02-01T00:28:22;14.70;;;7.37;;
4583;SDS011;2304;47.606;12.186;2023-02-01T00:33:24;12.90;;;7.70;;
4583;SDS011;2304;47.606;12.186;2023-02-01T00:38:26;11.13;;;7.83;;
4583;SDS011;2304;47.606;12.186;2023-02-01T00:43:29;13.33;;;8.03;;
4583;SDS011;2304;47.606;12.186;2023-02-01T00:48:32;12.27;;;7.73;;
4583;SDS011;2304;47.606;12.186;2023-02-01T00:53:34;11.23;;;7.93;;
4583;SDS011;2304;47.606;12.186;2023-02-01T00:58:37;17.47;;;8.07;;
4583;SDS011;2304;47.606;12.186;2023-02-01T01:03:40;12.40;;;7.47;;
4583;SDS011;2304;47.606;12.186;2023-02-01T01:08:44;13.73;;;6.90;;
4583;SDS011;2304;47.606;12.186;2023-02-01T01:13:47;13.60;;;7.80;;
4583;SDS011;2304;47.606;12.186;2023-02-01T01:18:50;18.10;;;6.90;;
4583;SDS011;2304;47.606;12.186;2023-02-01T01:23:52;14.03;;;7.47;;
4583;SDS011;2304;47.606;12.186;2023-02-01T01:28:56;9.97;;;6.53;;
4583;SDS011;2304;47.606;12.186;2023-02-01T01:33:59;13.73;;;7.47;;
4583;SDS011;2304;47.606;12.186;2023-02-01T01:39:01;11.13;;;7.20;;
4583;SDS011;2304;47.606;12.186;2023-02-01T01:44:05;11.20;;;6.83;;
4583;SDS011;2304;47.606;12.186;2023-02-01T01:49:09;12.57;;;7.53;;
4583;SDS011;2304;47.606;12.186;2023-02-01T01:54:14;15.83;;;8.60;;
4583;SDS011;2304;47.606;12.186;2023-02-01T01:59:21;12.67;;;7.73;;
4583;SDS011;2304;47.606;12.186;2023-02-01T02:04:24;14.73;;;7.53;;
4583;SDS011;2304;47.606;12.186;2023-02-01T02:09:27;11.67;;;7.13;;
4583;SDS011;2304;47.606;12.186;2023-02-01T02:14:30;13.53;;;6.93;;
4583;SDS011;2304;47.606;12.186;2023-02-01T02:25:40;11.23;;;6.80;;
4583;SDS011;2304;47.606;12.186;2023-02-01T02:31:04;10.40;;;6.93;;
4583;SDS011;2304;47.606;12.186;2023-02-01T02:36:26;12.10;;;6.83;;
4583;SDS011;2304;47.606;12.186;2023-02-01T02:41:41;11.47;;;6.90;;
4583;SDS011;2304;47.606;12.186;2023-02-01T02:47:10;12.00;;;8.07;;
4583;SDS011;2304;47.606;12.186;2023-02-01T02:52:26;12.37;;;8.33;;
4583;SDS011;2304;47.606;12.186;2023-02-01T02:57:55;14.00;;;7.20;;
4583;SDS011;2304;47.606;12.186;2023-02-01T03:03:16;12.07;;;7.00;;
4583;SDS011;2304;47.606;12.186;2023-02-01T03:08:37;12.83;;;7.40;;
4583;SDS011;2304;47.606;12.186;2023-02-01T03:13:45;11.80;;;7.10;;
4583;SDS011;2304;47.606;12.186;2023-02-01T03:18:52;11.50;;;6.70;;
4583;SDS011;2304;47.606;12.186;2023-02-01T03:23:59;10.03;;;7.30;;
4583;SDS011;2304;47.606;12.186;2023-02-01T03:29:08;11.63;;;7.43;;
4583;SDS011;2304;47.606;12.186;2023-02-01T03:34:14;13.50;;;8.17;;
4583;SDS011;2304;47.606;12.186;2023-02-01T03:39:18;10.77;;;7.67;;
4583;SDS011;2304;47.606;12.186;2023-02-01T03:44:26;11.83;;;7.43;;
4583;SDS011;2304;47.606;12.186;2023-02-01T03:49:33;14.20;;;8.20;;
4583;SDS011;2304;47.606;12.186;2023-02-01T03:54:39;16.60;;;7.67;;
4583;SDS011;2304;47.606;12.186;2023-02-01T03:59:42;12.73;;;8.20;;
4583;SDS011;2304;47.606;12.186;2023-02-01T04:04:45;12.67;;;8.43;;
4583;SDS011;2304;47.606;12.186;2023-02-01T04:09:48;15.30;;;9.80;;
4583;SDS011;2304;47.606;12.186;2023-02-01T04:14:50;10.63;;;8.13;;
4583;SDS011;2304;47.606;12.186;2023-02-01T04:19:52;15.87;;;8.10;;
4583;SDS011;2304;47.606;12.186;2023-02-01T04:24:55;13.50;;;7.80;;
4583;SDS011;2304;47.606;12.186;2023-02-01T04:29:57;14.37;;;8.47;;
4583;SDS011;2304;47.606;12.186;2023-02-01T04:34:59;10.50;;;7.47;;
4583;SDS011;2304;47.606;12.186;2023-02-01T04:40:02;14.10;;;8.10;;
4583;SDS011;2304;47.606;12.186;2023-02-01T04:45:05;10.87;;;7.30;;
4583;SDS011;2304;47.606;12.186;2023-02-01T04:50:09;13.90;;;8.27;;
4583;SDS011;2304;47.606;12.186;2023-02-01T04:55:12;14.03;;;8.53;;
4583;SDS011;2304;47.606;12.186;2023-02-01T05:00:15;12.50;;;7.87;;
4583;SDS011;2304;47.606;12.186;2023-02-01T05:05:17;15.20;;;8.07;;
4583;SDS011;2304;47.606;12.186;2023-02-01T05:10:20;12.60;;;8.37;;
4583;SDS011;2304;47.606;12.186;2023-02-01T05:15:22;10.80;;;7.77;;
4583;SDS011;2304;47.606;12.186;2023-02-01T05:20:24;13.20;;;7.73;;
4583;SDS011;2304;47.606;12.186;2023-02-01T05:25:27;11.00;;;8.10;;
4583;SDS011;2304;47.606;12.186;2023-02-01T05:30:29;15.73;;;9.00;;
4583;SDS011;2304;47.606;12.186;2023-02-01T05:35:32;12.37;;;8.83;;
4583;SDS011;2304;47.606;12.186;2023-02-01T05:40:35;10.87;;;7.00;;
4583;SDS011;2304;47.606;12.186;2023-02-01T05:45:37;13.73;;;6.80;;
4583;SDS011;2304;47.606;12.186;2023-02-01T05:50:39;10.10;;;6.20;;
4583;SDS011;2304;47.606;12.186;2023-02-01T05:55:42;11.90;;;7.00;;
4583;SDS011;2304;47.606;12.186;2023-02-01T06:00:44;11.63;;;7.77;;
4583;SDS011;2304;47.606;12.186;2023-02-01T06:05:46;10.60;;;7.30;;
4583;SDS011;2304;47.606;12.186;2023-02-01T06:10:50;10.83;;;7.63;;
4583;SDS011;2304;47.606;12.186;2023-02-01T06:15:52;9.93;;;7.00;;
4583;SDS011;2304;47.606;12.186;2023-02-01T06:20:55;16.23;;;8.60;;
4583;SDS011;2304;47.606;12.186;2023-02-01T06:26:02;12.67;;;8.30;;
4583;SDS011;2304;47.606;12.186;2023-02-01T06:31:05;11.50;;;8.17;;
4583;SDS011;2304;47.606;12.186;2023-02-01T06:36:09;11.00;;;7.30;;
4583;SDS011;2304;47.606;12.186;2023-02-01T06:41:13;15.10;;;8.57;;
4583;SDS011;2304;47.606;12.186;2023-02-01T06:46:15;13.90;;;8.40;;
4583;SDS011;2304;47.606;12.186;2023-02-01T06:51:20;11.80;;;7.90;;
4583;SDS011;2304;47.606;12.186;2023-02-01T06:56:24;13.20;;;8.60;;
4583;SDS011;2304;47.606;12.186;2023-02-01T07:01:26;15.33;;;8.13;;
4583;SDS011;2304;47.606;12.186;2023-02-01T07:06:28;17.37;;;10.50;;
4583;SDS011;2304;47.606;12.186;2023-02-01T07:11:31;19.20;;;10.53;;
4583;SDS011;2304;47.606;12.186;2023-02-01T07:16:33;12.27;;;9.03;;
4583;SDS011;2304;47.606;12.186;2023-02-01T07:21:35;18.37;;;10.47;;
4583;SDS011;2304;47.606;12.186;2023-02-01T07:26:38;23.20;;;9.03;;
4583;SDS011;2304;47.606;12.186;2023-02-01T07:31:40;17.97;;;10.43;;
4583;SDS011;2304;47.606;12.186;2023-02-01T07:36:41;16.40;;;9.70;;
4583;SDS011;2304;47.606;12.186;2023-02-01T07:41:45;15.23;;;9.90;;
4583;SDS011;2304;47.606;12.186;2023-02-01T07:46:47;14.80;;;9.80;;
4583;SDS011;2304;47.606;12.186;2023-02-01T07:51:49;12.40;;;8.60;;
4583;SDS011;2304;47.606;12.186;2023-02-01T07:56:52;16.17;;;9.50;;
4583;SDS011;2304;47.606;12.186;2023-02-01T08:01:54;12.53;;;8.77;;
4583;SDS011;2304;47.606;12.186;2023-02-01T08:06:55;19.17;;;10.20;;
4583;SDS011;2304;47.606;12.186;2023-02-01T08:11:58;13.27;;;9.30;;
4583;SDS011;2304;47.606;12.186;2023-02-01T08:17:01;14.80;;;10.17;;
4583;SDS011;2304;47.606;12.186;2023-02-01T08:22:03;15.00;;;7.27;;
4583;SDS011;2304;47.606;12.186;2023-02-01T08:27:08;13.70;;;9.07;;
4583;SDS011;2304;47.606;12.186;2023-02-01T08:32:09;21.00;;;9.10;;
4583;SDS011;2304;47.606;12.186;2023-02-01T08:37:11;12.80;;;7.90;;
4583;SDS011;2304;47.606;12.186;2023-02-01T08:42:14;11.90;;;7.00;;
4583;SDS011;2304;47.606;12.186;2023-02-01T08:47:34;12.17;;;7.40;;
4583;SDS011;2304;47.606;12.186;2023-02-01T08:52:36;10.70;;;6.43;;
4583;SDS011;2304;47.606;12.186;2023-02-01T08:57:39;12.60;;;7.63;;
4583;SDS011;2304;47.606;12.186;2023-02-01T09:02:41;14.33;;;7.33;;
4583;SDS011;2304;47.606;12.186;2023-02-01T09:07:43;12.90;;;8.73;;
4583;SDS011;2304;47.606;12.186;2023-02-01T09:12:46;13.07;;;8.23;;
4583;SDS011;2304;47.606;12.186;2023-02-01T09:17:48;8.10;;;5.93;;
4583;SDS011;2304;47.606;12.186;2023-02-01T09:22:50;13.13;;;7.97;;
4583;SDS011;2304;47.606;12.186;2023-02-01T09:27:54;12.53;;;8.23;;
4583;SDS011;2304;47.606;12.186;2023-02-01T09:32:55;10.10;;;5.77;;
4583;SDS011;2304;47.606;12.186;2023-02-01T09:37:57;10.17;;;6.90;;
4583;SDS011;2304;47.606;12.186;2023-02-01T09:43:04;15.50;;;8.00;;
4583;SDS011;2304;47.606;12.186;2023-02-01T09:48:17;14.70;;;9.17;;
4583;SDS011;2304;47.606;12.186;2023-02-01T09:53:23;10.90;;;7.37;;
4583;SDS011;2304;47.606;12.186;2023-02-01T09:58:32;10.90;;;7.20;;
4583;SDS011;2304;47.606;12.186;2023-02-01T10:03:37;10.40;;;6.60;;
4583;SDS011;2304;47.606;12.186;2023-02-01T10:08:44;9.83;;;5.27;;
4583;SDS011;2304;47.606;12.186;2023-02-01T10:14:02;8.67;;;6.33;;
4583;SDS011;2304;47.606;12.186;2023-02-01T10:19:20;7.20;;;6.03;;
4583;SDS011;2304;47.606;12.186;2023-02-01T10:24:36;8.73;;;5.60;;
4583;SDS011;2304;47.606;12.186;2023-02-01T10:29:42;13.23;;;5.80;;
4583;SDS011;2304;47.606;12.186;2023-02-01T10:34:46;9.80;;;5.20;;
4583;SDS011;2304;47.606;12.186;2023-02-01T10:39:52;10.23;;;6.17;;
4583;SDS011;2304;47.606;12.186;2023-02-01T10:44:57;11.77;;;5.90;;
4583;SDS011;2304;47.606;12.186;2023-02-01T10:50:04;10.83;;;5.90;;
4583;SDS011;2304;47.606;12.186;2023-02-01T10:55:34;12.23;;;4.97;;
4583;SDS011;2304;47.606;12.186;2023-02-01T11:00:42;11.10;;;5.43;;
4583;SDS011;2304;47.606;12.186;2023-02-01T11:05:47;9.23;;;6.10;;
4583;SDS011;2304;47.606;12.186;2023-02-01T11:10:56;12.70;;;6.50;;
4583;SDS011;2304;47.606;12.186;2023-02-01T11:16:01;11.77;;;6.47;;
4583;SDS011;2304;47.606;12.186;2023-02-01T11:21:05;10.43;;;5.33;;
4583;SDS011;2304;47.606;12.186;2023-02-01T11:26:10;11.63;;;6.37;;
4583;SDS011;2304;47.606;12.186;2023-02-01T11:31:15;7.10;;;5.40;;
4583;SDS011;2304;47.606;12.186;2023-02-01T11:36:18;11.47;;;5.73;;
4583;SDS011;2304;47.606;12.186;2023-02-01T11:41:25;11.40;;;5.60;;
4583;SDS011;2304;47.606;12.186;2023-02-01T11:46:31;7.07;;;4.97;;
4583;SDS011;2304;47.606;12.186;2023-02-01T11:51:37;13.10;;;5.23;;
4583;SDS011;2304;47.606;12.186;2023-02-01T11:56:47;13.63;;;5.50;;
4583;SDS011;2304;47.606;12.186;2023-02-01T12:02:07;11.60;;;6.10;;
4583;SDS011;2304;47.606;12.186;2023-02-01T12:07:22;10.30;;;6.47;;
4583;SDS011;2304;47.606;12.186;2023-02-01T12:12:31;14.97;;;7.27;;
4583;SDS011;2304;47.606;12.186;2023-02-01T12:17:53;15.27;;;7.83;;
4583;SDS011;2304;47.606;12.186;2023-02-01T12:23:17;15.23;;;8.67;;
4583;SDS011;2304;47.606;12.186;2023-02-01T12:28:33;26.07;;;11.90;;
4583;SDS011;2304;47.606;12.186;2023-02-01T12:33:51;16.30;;;9.50;;
4583;SDS011;2304;47.606;12.186;2023-02-01T12:39:14;27.20;;;9.20;;
4583;SDS011;2304;47.606;12.186;2023-02-01T12:44:27;11.00;;;4.00;;
4583;SDS011;2304;47.606;12.186;2023-02-01T12:49:41;16.93;;;6.90;;
4583;SDS011;2304;47.606;12.186;2023-02-01T12:54:50;8.27;;;3.57;;
4583;SDS011;2304;47.606;12.186;2023-02-01T13:00:02;8.93;;;4.93;;
4583;SDS011;2304;47.606;12.186;2023-02-01T13:05:15;5.73;;;3.10;;
4583;SDS011;2304;47.606;12.186;2023-02-01T13:10:21;6.10;;;4.33;;
4583;SDS011;2304;47.606;12.186;2023-02-01T13:15:30;5.50;;;3.63;;
4583;SDS011;2304;47.606;12.186;2023-02-01T13:20:40;7.53;;;5.27;;
4583;SDS011;2304;47.606;12.186;2023-02-01T13:25:49;4.83;;;3.17;;
4583;SDS011;2304;47.606;12.186;2023-02-01T13:30:55;4.27;;;2.63;;
4583;SDS011;2304;47.606;12.186;2023-02-01T13:36:41;5.50;;;2.90;;
4583;SDS011;2304;47.606;12.186;2023-02-01T13:41:55;4.70;;;1.60;;
4583;SDS011;2304;47.606;12.186;2023-02-01T13:47:00;5.20;;;3.80;;
4583;SDS011;2304;47.606;12.186;2023-02-01T13:52:05;6.40;;;3.97;;
4583;SDS011;2304;47.606;12.186;2023-02-01T13:57:13;4.50;;;2.10;;
4583;SDS011;2304;47.606;12.186;2023-02-01T14:02:36;3.73;;;2.50;;
4583;SDS011;2304;47.606;12.186;2023-02-01T14:08:11;6.37;;;3.77;;
4583;SDS011;2304;47.606;12.186;2023-02-01T14:13:22;8.80;;;3.77;;
4583;SDS011;2304;47.606;12.186;2023-02-01T14:24:00;3.97;;;2.07;;
4583;SDS011;2304;47.606;12.186;2023-02-01T14:29:09;4.50;;;2.90;;
4583;SDS011;2304;47.606;12.186;2023-02-01T14:34:31;6.43;;;4.17;;
4583;SDS011;2304;47.606;12.186;2023-02-01T14:39:50;4.80;;;1.80;;
4583;SDS011;2304;47.606;12.186;2023-02-01T14:44:56;3.00;;;1.90;;
4583;SDS011;2304;47.606;12.186;2023-02-01T14:50:36;10.80;;;2.70;;
4583;SDS011;2304;47.606;12.186;2023-02-01T14:55:42;2.23;;;1.90;;
4583;SDS011;2304;47.606;12.186;2023-02-01T15:00:47;2.73;;;1.70;;
4583;SDS011;2304;47.606;12.186;2023-02-01T15:05:54;5.27;;;2.20;;
4583;SDS011;2304;47.606;12.186;2023-02-01T15:10:59;3.30;;;2.10;;
4583;SDS011;2304;47.606;12.186;2023-02-01T15:16:04;2.20;;;1.60;;
4583;SDS011;2304;47.606;12.186;2023-02-01T15:21:15;5.87;;;2.70;;
4583;SDS011;2304;47.606;12.186;2023-02-01T15:26:27;2.40;;;1.73;;
4583;SDS011;2304;47.606;12.186;2023-02-01T15:31:31;4.43;;;1.90;;
4583;SDS011;2304;47.606;12.186;2023-02-01T15:36:35;2.50;;;1.50;;
4583;SDS011;2304;47.606;12.186;2023-02-01T15:41:38;3.90;;;2.10;;
4583;SDS011;2304;47.606;12.186;2023-02-01T15:46:42;4.20;;;2.60;;
4583;SDS011;2304;47.606;12.186;2023-02-01T15:51:48;3.07;;;2.07;;
4583;SDS011;2304;47.606;12.186;2023-02-01T15:56:53;2.40;;;1.50;;
4583;SDS011;2304;47.606;12.186;2023-02-01T16:01:56;4.63;;;2.80;;
4583;SDS011;2304;47.606;12.186;2023-02-01T16:06:58;5.90;;;2.67;;
4583;SDS011;2304;47.606;12.186;2023-02-01T16:12:20;5.40;;;2.27;;
4583;SDS011;2304;47.606;12.186;2023-02-01T16:17:35;6.20;;;3.50;;
4583;SDS011;2304;47.606;12.186;2023-02-01T16:22:37;8.90;;;2.33;;
4583;SDS011;2304;47.606;12.186;2023-02-01T16:27:40;9.67;;;2.20;;
4583;SDS011;2304;47.606;12.186;2023-02-01T16:32:42;4.40;;;2.00;;
4583;SDS011;2304;47.606;12.186;2023-02-01T16:37:44;6.13;;;1.93;;
4583;SDS011;2304;47.606;12.186;2023-02-01T16:42:47;8.60;;;3.40;;
4583;SDS011;2304;47.606;12.186;2023-02-01T16:47:52;4.83;;;1.93;;
4583;SDS011;2304;47.606;12.186;2023-02-01T16:52:55;4.03;;;2.10;;
4583;SDS011;2304;47.606;12.186;2023-02-01T16:57:58;6.20;;;2.10;;
4583;SDS011;2304;47.606;12.186;2023-02-01T17:03:00;38.83;;;13.40;;
4583;SDS011;2304;47.606;12.186;2023-02-01T17:08:03;19.77;;;5.60;;
4583;SDS011;2304;47.606;12.186;2023-02-01T17:13:10;13.67;;;9.20;;
4583;SDS011;2304;47.606;12.186;2023-02-01T17:18:14;7.73;;;5.20;;
4583;SDS011;2304;47.606;12.186;2023-02-01T17:23:18;5.13;;;2.77;;
4583;SDS011;2304;47.606;12.186;2023-02-01T17:28:22;3.87;;;2.27;;
4583;SDS011;2304;47.606;12.186;2023-02-01T17:33:25;7.17;;;2.80;;
4583;SDS011;2304;47.606;12.186;2023-02-01T17:38:30;4.00;;;2.10;;
4583;SDS011;2304;47.606;12.186;2023-02-01T17:43:33;7.30;;;3.87;;
4583;SDS011;2304;47.606;12.186;2023-02-01T17:48:35;9.80;;;3.90;;
4583;SDS011;2304;47.606;12.186;2023-02-01T17:53:36;6.30;;;2.70;;
4583;SDS011;2304;47.606;12.186;2023-02-01T17:58:39;4.80;;;2.57;;
4583;SDS011;2304;47.606;12.186;2023-02-01T18:03:41;11.47;;;4.57;;
4583;SDS011;2304;47.606;12.186;2023-02-01T18:08:43;6.83;;;2.63;;
4583;SDS011;2304;47.606;12.186;2023-02-01T18:13:47;4.80;;;2.30;;
4583;SDS011;2304;47.606;12.186;2023-02-01T18:18:50;5.80;;;2.67;;
4583;SDS011;2304;47.606;12.186;2023-02-01T18:23:53;5.27;;;2.40;;
4583;SDS011;2304;47.606;12.186;2023-02-01T18:28:56;4.80;;;2.03;;
4583;SDS011;2304;47.606;12.186;2023-02-01T18:33:58;4.53;;;1.80;;
4583;SDS011;2304;47.606;12.186;2023-02-01T18:39:00;5.83;;;2.40;;
4583;SDS011;2304;47.606;12.186;2023-02-01T18:44:04;7.43;;;2.97;;
4583;SDS011;2304;47.606;12.186;2023-02-01T18:49:06;7.10;;;2.20;;
4583;SDS011;2304;47.606;12.186;2023-02-01T18:54:07;6.93;;;3.17;;
4583;SDS011;2304;47.606;12.186;2023-02-01T18:59:12;9.47;;;4.03;;
4583;SDS011;2304;47.606;12.186;2023-02-01T19:04:16;7.03;;;3.30;;
4583;SDS011;2304;47.606;12.186;2023-02-01T19:09:18;4.40;;;1.87;;
4583;SDS011;2304;47.606;12.186;2023-02-01T19:14:21;6.70;;;2.33;;
4583;SDS011;2304;47.606;12.186;2023-02-01T19:19:23;10.93;;;2.40;;
4583;SDS011;2304;47.606;12.186;2023-02-01T19:24:24;5.10;;;2.20;;
4583;SDS011;2304;47.606;12.186;2023-02-01T19:29:28;5.83;;;2.07;;
4583;SDS011;2304;47.606;12.186;2023-02-01T19:34:30;6.57;;;2.23;;
4583;SDS011;2304;47.606;12.186;2023-02-01T19:39:33;4.27;;;2.10;;
4583;SDS011;2304;47.606;12.186;2023-02-01T19:44:38;8.13;;;2.30;;
4583;SDS011;2304;47.606;12.186;2023-02-01T19:49:40;9.63;;;3.03;;
4583;SDS011;2304;47.606;12.186;2023-02-01T19:54:42;7.07;;;2.10;;
4583;SDS011;2304;47.606;12.186;2023-02-01T19:59:45;6.20;;;2.53;;
4583;SDS011;2304;47.606;12.186;2023-02-01T20:04:47;6.87;;;2.17;;
4583;SDS011;2304;47.606;12.186;2023-02-01T20:09:48;6.77;;;2.90;;
4583;SDS011;2304;47.606;12.186;2023-02-01T20:14:51;10.73;;;2.70;;
4583;SDS011;2304;47.606;12.186;2023-02-01T20:19:55;5.77;;;2.00;;
4583;SDS011;2304;47.606;12.186;2023-02-01T20:24:57;3.77;;;1.67;;
4583;SDS011;2304;47.606;12.186;2023-02-01T20:30:00;5.70;;;2.10;;
4583;SDS011;2304;47.606;12.186;2023-02-01T20:35:02;4.73;;;1.87;;
4583;SDS011;2304;47.606;12.186;2023-02-01T20:40:04;10.53;;;4.03;;
4583;SDS011;2304;47.606;12.186;2023-02-01T20:45:08;6.57;;;2.40;;
4583;SDS011;2304;47.606;12.186;2023-02-01T20:50:10;7.07;;;2.00;;
4583;SDS011;2304;47.606;12.186;2023-02-01T20:55:12;4.37;;;1.90;;
4583;SDS011;2304;47.606;12.186;2023-02-01T21:00:15;8.07;;;1.83;;
4583;SDS011;2304;47.606;12.186;2023-02-01T21:05:18;5.90;;;2.30;;
4583;SDS011;2304;47.606;12.186;2023-02-01T21:10:20;7.77;;;2.80;;
4583;SDS011;2304;47.606;12.186;2023-02-01T21:15:23;7.80;;;1.87;;
4583;SDS011;2304;47.606;12.186;2023-02-01T21:20:26;3.90;;;1.60;;
4583;SDS011;2304;47.606;12.186;2023-02-01T21:25:28;6.73;;;2.10;;
4583;SDS011;2304;47.606;12.186;2023-02-01T21:30:32;4.03;;;2.13;;
4583;SDS011;2304;47.606;12.186;2023-02-01T21:35:33;6.53;;;2.20;;
4583;SDS011;2304;47.606;12.186;2023-02-01T21:40:35;5.40;;;1.87;;
4583;SDS011;2304;47.606;12.186;2023-02-01T21:45:39;6.00;;;1.87;;
4583;SDS011;2304;47.606;12.186;2023-02-01T21:50:40;4.80;;;1.87;;
4583;SDS011;2304;47.606;12.186;2023-02-01T21:55:42;5.47;;;2.07;;
4583;SDS011;2304;47.606;12.186;2023-02-01T22:00:45;5.03;;;2.27;;
4583;SDS011;2304;47.606;12.186;2023-02-01T22:05:48;4.80;;;1.90;;
4583;SDS011;2304;47.606;12.186;2023-02-01T22:10:49;3.40;;;1.83;;
4583;SDS011;2304;47.606;12.186;2023-02-01T22:15:53;7.10;;;1.83;;
4583;SDS011;2304;47.606;12.186;2023-02-01T22:20:56;3.50;;;2.20;;
4583;SDS011;2304;47.606;12.186;2023-02-01T22:25:59;3.13;;;1.67;;
4583;SDS011;2304;47.606;12.186;2023-02-01T22:31:04;3.57;;;1.83;;
4583;SDS011;2304;47.606;12.186;2023-02-01T22:36:07;3.73;;;1.90;;
4583;SDS011;2304;47.606;12.186;2023-02-01T22:41:10;3.17;;;2.17;;
4583;SDS011;2304;47.606;12.186;2023-02-01T22:46:14;3.13;;;2.10;;
4583;SDS011;2304;47.606;12.186;2023-02-01T22:51:18;7.30;;;1.70;;
4583;SDS011;2304;47.606;12.186;2023-02-01T22:56:22;3.40;;;1.70;;
4583;SDS011;2304;47.606;12.186;2023-02-01T23:01:26;5.50;;;1.60;;
4583;SDS011;2304;47.606;12.186;2023-02-01T23:06:29;4.43;;;1.87;;
4583;SDS011;2304;47.606;12.186;2023-02-01T23:11:31;3.40;;;1.53;;
4583;SDS011;2304;47.606;12.186;2023-02-01T23:16:35;4.90;;;1.47;;
4583;SDS011;2304;47.606;12.186;2023-02-01T23:21:37;2.70;;;1.60;;
4583;SDS011;2304;47.606;12.186;2023-02-01T23:26:39;2.77;;;1.70;;
4583;SDS011;2304;47.606;12.186;2023-02-01T23:31:42;5.30;;;2.23;;
4583;SDS011;2304;47.606;12.186;2023-02-01T23:36:44;4.90;;;1.87;;
4583;SDS011;2304;47.606;12.186;2023-02-01T23:41:46;4.03;;;1.60;;
4583;SDS011;2304;47.606;12.186;2023-02-01T23:46:49;2.33;;;1.87;;
4583;SDS011;2304;47.606;12.186;2023-02-01T23:51:51;2.70;;;1.60;;
4583;SDS011;2304;47.606;12.186;2023-02-01T23:56:52;6.53;;;2.70;;
